createdAt,value
2023-02-02T00:04:46.860Z,4.913043478260869
2023-02-02T00:11:09.127Z,5.260869565217392
2023-02-02T00:24:38.850Z,5.595317725752508
2023-02-02T00:30:59.964Z,4.528428093645485
2023-02-02T00:38:24.939Z,5.3076923076923075
2023-02-02T00:44:46.371Z,5.183946488294314
2023-02-02T00:51:07.624Z,4.334448160535117
2023-02-02T00:57:29.465Z,4.909698996655519
2023-02-02T01:05:37.625Z,4.7792642140468224
2023-02-02T01:11:58.995Z,4.826086956521739
2023-02-02T01:18:20.597Z,3.4983277591973243
2023-02-02T01:24:41.638Z,3.1638795986622075
2023-02-02T01:31:02.917Z,3.0501672240802677
2023-02-02T01:41:45.930Z,3.230769230769231
2023-02-02T01:48:06.870Z,3.608695652173913
2023-02-02T01:54:28.435Z,4.913043478260869
2023-02-02T02:00:49.196Z,4.993311036789297
2023-02-02T02:07:10.705Z,3.4849498327759196
2023-02-02T02:13:33.487Z,5.7725752508361206
2023-02-02T02:19:55.475Z,4.869565217391305
2023-02-02T02:26:17.472Z,4.8561872909699
2023-02-02T02:37:46.422Z,4.294314381270903
2023-02-02T02:44:08.428Z,4.54180602006689
2023-02-02T02:50:30.227Z,4.698996655518394
2023-02-02T02:56:52.798Z,4.0602006688963215
2023-02-02T03:03:15.815Z,5.150501672240803
2023-02-02T03:13:33.917Z,3.849498327759197
2023-02-02T03:19:55.816Z,3.9163879598662206
2023-02-02T03:34:36.126Z,3.7926421404682276
2023-02-02T03:40:58.184Z,3.568561872909699
2023-02-02T03:47:20.521Z,4.137123745819398
2023-02-02T03:53:42.370Z,4.6521739130434785
2023-02-02T04:00:03.937Z,4.2207357859531776
2023-02-02T04:06:25.615Z,3.959866220735786
2023-02-02T04:14:49.117Z,4.535117056856187
2023-02-02T04:21:10.635Z,5.2675585284280935
2023-02-02T04:27:32.444Z,4.625418060200669
2023-02-02T04:33:54.343Z,5.702341137123746
2023-02-02T04:45:49.239Z,5.34113712374582
2023-02-02T04:54:12.094Z,4.351170568561873
2023-02-02T05:00:34.073Z,5.846153846153846
2023-02-02T05:06:55.738Z,4.969899665551839
2023-02-02T05:13:17.411Z,5.665551839464883
2023-02-02T05:23:26.188Z,4.782608695652174
2023-02-02T05:29:48.048Z,4.956521739130435
2023-02-02T05:37:36.421Z,3.8862876254180603
2023-02-02T05:46:17.586Z,4.454849498327759
2023-02-02T05:52:38.936Z,5.033444816053512
2023-02-02T05:59:00.320Z,5.879598662207358
2023-02-02T06:05:22.572Z,6.521739130434782
2023-02-02T06:11:44.306Z,5.5719063545150505
2023-02-02T06:18:05.980Z,4.62876254180602
2023-02-02T06:24:38.878Z,5.354515050167224
2023-02-02T06:31:00.681Z,6.48494983277592
2023-02-02T06:37:22.579Z,6.240802675585284
2023-02-02T06:43:44.195Z,6.545150501672241
2023-02-02T06:50:06.136Z,6.54180602006689
2023-02-02T06:56:27.193Z,7.05685618729097
2023-02-02T07:02:48.128Z,7.8561872909699
2023-02-02T07:11:13.236Z,9.846153846153847
2023-02-02T07:17:37.024Z,9.434782608695652
2023-02-02T07:23:58.917Z,7.177257525083612
2023-02-02T07:31:05.851Z,7.722408026755853
2023-02-02T07:39:39.093Z,6.538461538461538
2023-02-02T07:48:00.754Z,7.240802675585284
2023-02-02T07:54:25.981Z,6.481605351170568
2023-02-02T08:00:50.836Z,9.846153846153847
2023-02-02T08:07:17.062Z,8.14046822742475
2023-02-02T08:19:31.596Z,9.612040133779264
2023-02-02T08:31:02.239Z,8.361204013377927
2023-02-02T08:43:24.088Z,9.535117056856187
2023-02-02T09:01:44.920Z,7.367892976588629
2023-02-02T09:08:47.643Z,7.2842809364548495
2023-02-02T09:15:12.493Z,6.384615384615385
2023-02-02T09:24:26.357Z,6.046822742474917
2023-02-02T09:38:13.321Z,7.1003344481605355
2023-02-02T09:44:37.986Z,6.3076923076923075
2023-02-02T09:51:02.035Z,6.0602006688963215
2023-02-02T09:57:26.878Z,6.60200668896321
2023-02-02T10:05:38.961Z,5.976588628762542
2023-02-02T10:12:03.799Z,6.615384615384615
2023-02-02T10:25:48.193Z,14.093645484949834
2023-02-02T10:32:12.884Z,9.538461538461538
2023-02-02T10:38:37.884Z,7.508361204013378
2023-02-02T10:57:17.505Z,6.1237458193979935
2023-02-02T11:11:58.470Z,7.615384615384615
2023-02-02T11:18:23.995Z,5.8193979933110365
2023-02-02T11:25:56.256Z,7.120401337792642
2023-02-02T11:33:19.612Z,6.0
2023-02-02T11:43:46.871Z,7.809364548494983
2023-02-02T11:53:30.175Z,8.311036789297658
2023-02-02T11:59:55.576Z,8.872909698996656
2023-02-02T12:06:20.659Z,7.719063545150502
2023-02-02T12:12:45.237Z,7.1806020066889635
2023-02-02T12:19:10.681Z,6.7792642140468224
2023-02-02T12:25:35.032Z,6.752508361204013
2023-02-02T12:31:59.744Z,10.615384615384615
2023-02-02T12:38:24.769Z,9.411371237458194
2023-02-02T12:46:29.461Z,13.575250836120402
2023-02-02T12:52:53.811Z,7.735785953177258
2023-02-02T12:59:19.284Z,6.1404682274247495
2023-02-02T13:05:43.566Z,10.08361204013378
2023-02-02T13:12:08.224Z,9.110367892976589
2023-02-02T13:18:33.390Z,8.096989966555183
2023-02-02T13:25:00.012Z,6.48494983277592
2023-02-02T13:31:25.253Z,6.615384615384615
2023-02-02T13:37:50.046Z,4.839464882943144
2023-02-02T13:44:16.040Z,3.9866220735785953
2023-02-02T13:50:40.756Z,5.585284280936455
2023-02-02T13:57:05.381Z,5.511705685618729
2023-02-02T14:03:30.172Z,4.016722408026756
2023-02-02T14:09:55.059Z,5.528428093645485
2023-02-02T14:16:20.290Z,5.545150501672241
2023-02-02T14:25:53.728Z,4.581939799331104
2023-02-02T14:32:42.832Z,5.976588628762542
2023-02-02T14:39:07.892Z,6.892976588628763
2023-02-02T14:45:33.483Z,6.528428093645485
2023-02-02T14:54:06.554Z,3.57190635451505
2023-02-02T15:00:32.255Z,5.287625418060201
2023-02-02T15:37:14.879Z,4.531772575250836
2023-02-02T15:43:55.242Z,5.096989966555184
2023-02-02T15:50:20.576Z,8.62876254180602
2023-02-02T16:01:09.991Z,10.103678929765886
2023-02-02T16:07:32.208Z,6.7792642140468224
2023-02-02T16:13:53.669Z,6.190635451505017
2023-02-02T16:21:54.466Z,6.919732441471572
2023-02-02T16:32:46.093Z,7.648829431438127
2023-02-02T16:39:09.066Z,6.521739130434782
2023-02-02T16:45:33.632Z,10.237458193979933
2023-02-02T16:51:56.231Z,8.26086956521739
2023-02-02T16:58:19.025Z,7.806020066889632
2023-02-02T17:04:40.953Z,5.8595317725752505
2023-02-02T17:11:03.637Z,7.769230769230769
2023-02-02T17:23:08.611Z,7.88628762541806
2023-02-02T17:29:30.813Z,6.695652173913044
2023-02-02T17:35:55.262Z,7.913043478260869
2023-02-02T17:42:18.086Z,6.68561872909699
2023-02-02T17:48:39.650Z,6.0602006688963215
2023-02-02T17:59:59.542Z,5.454849498327759
2023-02-02T18:14:24.170Z,4.809364548494983
2023-02-02T18:20:45.392Z,4.317725752508361
2023-02-02T18:27:06.481Z,5.615384615384615
2023-02-02T18:33:31.555Z,5.137123745819398
2023-02-02T18:39:54.099Z,4.705685618729097
2023-02-02T18:46:14.871Z,4.7959866220735785
2023-02-02T18:52:35.476Z,5.033444816053512
2023-02-02T18:59:26.757Z,5.525083612040134
2023-02-02T19:15:43.023Z,8.602006688963211
2023-02-02T19:22:07.873Z,8.806020066889632
2023-02-02T19:30:29.039Z,10.692307692307692
2023-02-02T19:42:13.672Z,10.130434782608695
2023-02-02T19:54:22.128Z,9.361204013377927
2023-02-02T20:01:50.093Z,9.565217391304348
2023-02-02T20:08:11.793Z,11.351170568561873
2023-02-02T20:17:34.882Z,11.632107023411372
2023-02-02T20:23:56.415Z,11.73913043478261
2023-02-02T20:30:17.844Z,15.702341137123746
2023-02-02T20:36:39.019Z,13.966555183946488
2023-02-02T20:42:59.979Z,15.384615384615385
2023-02-02T20:49:21.307Z,15.869565217391305
2023-02-02T20:55:42.651Z,16.745819397993312
2023-02-02T21:02:04.403Z,16.795986622073578
2023-02-02T21:08:26.932Z,15.040133779264215
2023-02-02T21:14:54.107Z,15.25418060200669
2023-02-02T21:21:16.020Z,14.976588628762542
2023-02-02T21:27:37.146Z,15.702341137123746
2023-02-02T21:33:58.443Z,16.618729096989966
2023-02-02T21:42:16.963Z,18.82943143812709
2023-02-02T21:48:37.923Z,20.277591973244146
2023-02-02T21:54:58.840Z,21.608695652173914
2023-02-02T22:01:19.727Z,22.157190635451506
2023-02-02T22:14:29.020Z,17.498327759197323
2023-02-02T22:20:49.965Z,15.936454849498327
2023-02-02T22:28:14.114Z,13.68227424749164
2023-02-02T22:50:33.662Z,13.882943143812708
2023-02-02T22:56:55.773Z,13.25752508361204
2023-02-02T23:03:20.079Z,14.073578595317725
2023-02-02T23:19:35.054Z,11.869565217391305
2023-02-02T23:25:56.534Z,12.705685618729097
2023-02-02T23:32:19.269Z,11.816053511705686
2023-02-02T23:38:42.029Z,13.193979933110368
2023-02-02T23:49:02.677Z,15.387959866220736
2023-02-02T23:55:25.187Z,14.036789297658864
